createdAt,value
2022-10-03T00:00:19.045Z,98927.41
2022-10-03T00:05:59.055Z,98919.91
2022-10-03T00:11:37.262Z,98927.41
2022-10-03T00:17:12.036Z,98924.31
2022-10-03T00:22:49.085Z,98949.06
2022-10-03T00:28:25.147Z,98954.25
2022-10-03T00:34:04.095Z,98958.22
2022-10-03T00:39:57.067Z,98964.72
2022-10-03T00:45:57.111Z,98961.88
2022-10-03T00:51:39.357Z,98965.66
2022-10-03T00:57:23.080Z,98969.31
2022-10-03T01:02:59.108Z,98971.03
2022-10-03T01:08:53.074Z,98978.69
2022-10-03T01:14:33.080Z,98971.06
2022-10-03T01:20:15.084Z,98982.25
2022-10-03T01:25:50.108Z,98978.72
2022-10-03T01:31:24.151Z,98971.78
2022-10-03T01:36:59.138Z,98975.72
2022-10-03T01:42:31.093Z,98981.38
2022-10-03T01:48:03.088Z,98999.50
2022-10-03T01:53:35.086Z,98995.38
2022-10-03T01:59:09.198Z,98998.03
2022-10-03T02:04:59.103Z,99001.00
2022-10-03T02:10:35.135Z,99007.25
2022-10-03T02:16:13.147Z,99000.28
2022-10-03T02:21:42.221Z,98998.03
2022-10-03T02:27:28.145Z,99013.44
2022-10-03T02:33:34.116Z,99017.84
2022-10-03T02:39:35.138Z,99013.31
2022-10-03T02:45:34.266Z,99017.13
2022-10-03T02:51:37.615Z,99011.88
2022-10-03T02:57:36.117Z,99023.03
2022-10-03T03:03:32.267Z,99034.50
2022-10-03T03:09:10.171Z,99045.13
2022-10-03T03:15:07.204Z,99040.88
2022-10-03T03:20:53.173Z,99051.78
2022-10-03T03:26:38.206Z,99052.34
2022-10-03T03:32:12.185Z,99048.53
2022-10-03T03:37:47.154Z,99053.66
2022-10-03T03:43:41.299Z,99059.50
2022-10-03T03:49:22.199Z,99052.84
2022-10-03T03:55:08.180Z,99057.38
2022-10-03T04:00:38.201Z,99060.06
2022-10-03T04:06:26.136Z,99060.59
2022-10-03T04:12:08.146Z,99069.53
2022-10-03T04:18:07.262Z,99069.38
2022-10-03T04:23:48.166Z,99069.84
2022-10-03T04:29:39.162Z,99076.19
2022-10-03T04:35:20.214Z,99076.72
2022-10-03T04:40:58.197Z,99083.06
2022-10-03T04:46:39.203Z,99097.81
2022-10-03T04:52:11.162Z,99093.03
2022-10-03T04:57:46.250Z,99088.25
2022-10-03T05:03:22.239Z,99101.69
2022-10-03T05:09:02.327Z,99099.72
2022-10-03T05:14:36.246Z,99103.53
2022-10-03T05:20:18.213Z,99094.34
2022-10-03T05:26:23.214Z,99113.31
2022-10-03T05:32:05.310Z,99118.69
2022-10-03T05:37:58.247Z,99128.47
2022-10-03T05:43:45.251Z,99130.56
2022-10-03T05:49:30.229Z,99154.06
2022-10-03T05:55:15.237Z,99152.09
2022-10-03T06:00:54.286Z,99151.94
2022-10-03T06:06:35.225Z,99162.28
2022-10-03T06:12:13.243Z,99171.91
2022-10-03T06:18:09.254Z,99178.47
2022-10-03T06:24:04.281Z,99179.31
2022-10-03T06:36:04.249Z,99193.81
2022-10-03T06:42:02.303Z,99198.25
2022-10-03T06:47:47.232Z,99204.06
2022-10-03T06:53:28.238Z,99210.22
2022-10-03T06:59:26.243Z,99207.22
2022-10-03T07:05:29.253Z,99214.50
2022-10-03T07:11:16.266Z,99208.72
2022-10-03T07:17:24.275Z,99199.09
2022-10-03T07:23:20.267Z,99200.50
2022-10-03T07:29:17.274Z,99202.81
2022-10-03T07:35:17.324Z,99216.72
2022-10-03T07:41:14.278Z,99225.09
2022-10-03T07:47:05.277Z,99229.50
2022-10-03T07:52:52.258Z,99231.78
2022-10-03T07:58:49.254Z,99222.16
2022-10-03T08:04:42.283Z,99229.66
2022-10-03T08:10:28.273Z,99234.94
2022-10-03T08:16:11.374Z,99228.25
2022-10-03T08:21:45.289Z,99233.81
2022-10-03T08:27:39.340Z,99236.47
2022-10-03T08:33:19.308Z,99238.03
2022-10-03T08:39:09.318Z,99228.94
2022-10-03T08:44:56.444Z,99224.41
2022-10-03T08:51:00.315Z,99218.97
2022-10-03T08:56:30.300Z,99219.63
2022-10-03T09:02:21.451Z,99213.47
2022-10-03T09:08:20.325Z,99214.13
2022-10-03T09:14:51.349Z,99213.75
2022-10-03T09:20:43.351Z,99217.41
2022-10-03T09:26:22.338Z,99227.34
2022-10-03T09:32:18.344Z,99241.19
2022-10-03T09:44:10.339Z,99250.03
2022-10-03T09:50:15.334Z,99228.13
2022-10-03T09:55:59.371Z,99234.59
2022-10-03T10:01:36.364Z,99233.41
2022-10-03T10:07:49.584Z,99216.50
2022-10-03T10:14:06.287Z,99218.94
2022-10-03T10:20:00.402Z,99223.97
2022-10-03T10:25:52.382Z,99209.38
2022-10-03T10:32:04.382Z,99189.44
2022-10-03T10:37:46.377Z,99197.44
2022-10-03T10:43:56.402Z,99183.19
2022-10-03T10:49:53.374Z,99178.84
2022-10-03T10:55:58.421Z,99183.88
2022-10-03T11:01:59.403Z,99174.78
2022-10-03T11:08:11.448Z,99169.47
2022-10-03T11:14:03.405Z,99170.75
2022-10-03T11:20:13.457Z,99179.47
2022-10-03T11:32:49.440Z,99187.41
2022-10-03T11:38:22.419Z,99184.00
2022-10-03T11:44:16.414Z,99169.34
2022-10-03T11:50:04.496Z,99175.91
2022-10-03T11:55:43.542Z,99191.88
2022-10-03T12:01:25.405Z,99179.53
2022-10-03T12:07:26.413Z,99164.56
2022-10-03T12:12:55.441Z,99170.41
2022-10-03T12:18:26.435Z,99165.44
2022-10-03T12:24:11.424Z,99161.50
2022-10-03T12:29:40.460Z,99169.34
2022-10-03T12:35:40.450Z,99160.06
2022-10-03T12:41:18.450Z,99156.66
2022-10-03T12:46:53.449Z,99159.69
2022-10-03T12:52:21.420Z,99160.22
2022-10-03T12:58:00.433Z,99157.00
2022-10-03T13:03:45.521Z,99159.38
2022-10-03T13:09:32.545Z,99152.56
2022-10-03T13:15:27.588Z,99147.47
2022-10-03T13:20:56.495Z,99154.09
2022-10-03T13:26:30.533Z,99151.75
2022-10-03T13:32:09.443Z,99173.56
2022-10-03T13:37:45.510Z,99144.25
2022-10-03T13:43:12.508Z,99149.91
2022-10-03T13:48:38.534Z,99142.78
2022-10-03T13:54:17.525Z,99135.34
2022-10-03T13:59:56.591Z,99130.59
2022-10-03T14:05:46.513Z,99140.44
2022-10-03T14:11:24.496Z,99138.06
2022-10-03T14:16:52.501Z,99142.09
2022-10-03T14:22:37.526Z,99152.75
2022-10-03T14:28:17.613Z,99145.66
2022-10-03T14:33:50.639Z,99146.16
2022-10-03T14:39:28.503Z,99150.50
2022-10-03T14:45:03.512Z,99148.66
2022-10-03T14:50:33.519Z,99144.41
2022-10-03T14:56:09.504Z,99143.06
2022-10-03T15:01:39.710Z,99144.22
2022-10-03T15:07:08.520Z,99142.69
2022-10-03T15:12:36.538Z,99135.06
2022-10-03T15:18:07.551Z,99134.63
2022-10-03T15:23:43.548Z,99126.66
2022-10-03T15:29:12.533Z,99103.81
2022-10-03T15:34:45.525Z,99108.56
2022-10-03T15:40:17.514Z,99107.88
2022-10-03T15:45:47.607Z,99099.94
2022-10-03T15:51:24.571Z,99110.09
2022-10-03T15:57:15.575Z,99102.44
2022-10-03T16:02:44.571Z,99112.88
2022-10-03T16:08:20.561Z,99111.47
2022-10-03T16:13:48.606Z,99116.00
2022-10-03T16:19:36.543Z,99114.19
2022-10-03T16:25:28.583Z,99126.09
2022-10-03T16:30:59.610Z,99128.56
2022-10-03T16:36:25.613Z,99132.94
